<?xml version="1.0" encoding="UTF-8" standalone="no" ?>
<gpx xmlns="http://www.topografix.com/GPX/1/1" xmlns:xsi="http://www.w3.org/2001/XMLSchema-instance" xsi:schemaLocation="http://www.topografix.com/GPX/1/1 http://www.topografix.com/GPX/1/1/gpx.xsd" version="1.1" creator="VisuGPX - https://www.visugpx.com">
  <metadata>
    <name>assemblage des fichiers GPX velofrancette ouistreham saumur</name>
    <desc><![CDATA[assemblage des fichiers GPX velofrancette ouistreham saumur]]></desc>
  </metadata>
  <trk>
    <name><![CDATA[20180702212037-57JBc]]></name>
    <trkseg>
      <trkpt lat="47.61666" lon="-0.69473">
        <ele>20.9</ele>
        <time>2014-04-20T07:27:16Z</time>
      </trkpt>
      <trkpt lat="47.61602" lon="-0.69463">
        <ele>19.4</ele>
        <time>2014-04-20T07:27:47Z</time>
      </trkpt>
      <trkpt lat="47.61598" lon="-0.69467">
        <ele>19.6</ele>
        <time>2014-04-20T07:40:03Z</time>
      </trkpt>
      <trkpt lat="47.61589" lon="-0.69442">
        <ele>20.5</ele>
        <time>2014-04-20T07:42:50Z</time>
      </trkpt>
      <trkpt lat="47.61566" lon="-0.69391">
        <ele>21</ele>
        <time>2014-04-20T07:42:59Z</time>
      </trkpt>
      <trkpt lat="47.61475" lon="-0.69205">
        <ele>20.3</ele>
        <time>2014-04-20T07:43:28Z</time>
      </trkpt>
      <trkpt lat="47.61196" lon="-0.68868">
        <ele>19.7</ele>
        <time>2014-04-20T07:44:42Z</time>
      </trkpt>
      <trkpt lat="47.61144" lon="-0.68825">
        <ele>19</ele>
        <time>2014-04-20T07:44:56Z</time>
      </trkpt>
      <trkpt lat="47.60392" lon="-0.68654">
        <ele>20.2</ele>
        <time>2014-04-20T07:47:37Z</time>
      </trkpt>
      <trkpt lat="47.60331" lon="-0.68667">
        <ele>18.9</ele>
        <time>2014-04-20T07:47:56Z</time>
      </trkpt>
      <trkpt lat="47.60298" lon="-0.68719">
        <ele>20.2</ele>
        <time>2014-04-20T07:48:46Z</time>
      </trkpt>
      <trkpt lat="47.60283" lon="-0.68772">
        <ele>22.6</ele>
        <time>2014-04-20T07:49:01Z</time>
      </trkpt>
      <trkpt lat="47.60244" lon="-0.68783">
        <ele>23.9</ele>
        <time>2014-04-20T07:49:20Z</time>
      </trkpt>
      <trkpt lat="47.60145" lon="-0.68793">
        <ele>27</ele>
        <time>2014-04-20T07:49:52Z</time>
      </trkpt>
      <trkpt lat="47.60159" lon="-0.68515">
        <ele>20.8</ele>
        <time>2014-04-20T07:55:55Z</time>
      </trkpt>
      <trkpt lat="47.60191" lon="-0.6841">
        <ele>21.1</ele>
        <time>2014-04-20T07:56:16Z</time>
      </trkpt>
      <trkpt lat="47.60221" lon="-0.68208">
        <ele>23.6</ele>
        <time>2014-04-20T07:56:46Z</time>
      </trkpt>
      <trkpt lat="47.60096" lon="-0.68092">
        <ele>31.7</ele>
        <time>2014-04-20T07:57:42Z</time>
      </trkpt>
      <trkpt lat="47.60038" lon="-0.6805">
        <ele>32.1</ele>
        <time>2014-04-20T07:57:58Z</time>
      </trkpt>
      <trkpt lat="47.59851" lon="-0.67969">
        <ele>31.1</ele>
        <time>2014-04-20T07:58:33Z</time>
      </trkpt>
      <trkpt lat="47.59787" lon="-0.67921">
        <ele>31.3</ele>
        <time>2014-04-20T07:58:45Z</time>
      </trkpt>
      <trkpt lat="47.59689" lon="-0.67823">
        <ele>31.9</ele>
        <time>2014-04-20T07:59:05Z</time>
      </trkpt>
      <trkpt lat="47.59593" lon="-0.67717">
        <ele>31.5</ele>
        <time>2014-04-20T07:59:25Z</time>
      </trkpt>
      <trkpt lat="47.59552" lon="-0.6765">
        <ele>31.5</ele>
        <time>2014-04-20T07:59:35Z</time>
      </trkpt>
      <trkpt lat="47.59431" lon="-0.6746">
        <ele>31.2</ele>
        <time>2014-04-20T08:00:04Z</time>
      </trkpt>
      <trkpt lat="47.59382" lon="-0.67329">
        <ele>31.8</ele>
        <time>2014-04-20T08:00:21Z</time>
      </trkpt>
      <trkpt lat="47.59336" lon="-0.67225">
        <ele>32.9</ele>
        <time>2014-04-20T08:00:36Z</time>
      </trkpt>
      <trkpt lat="47.59263" lon="-0.67147">
        <ele>30.8</ele>
        <time>2014-04-20T08:00:51Z</time>
      </trkpt>
      <trkpt lat="47.59179" lon="-0.67058">
        <ele>24.8</ele>
        <time>2014-04-20T08:01:05Z</time>
      </trkpt>
      <trkpt lat="47.59098" lon="-0.66919">
        <ele>24.9</ele>
        <time>2014-04-20T08:01:22Z</time>
      </trkpt>
      <trkpt lat="47.58997" lon="-0.66811">
        <ele>32.8</ele>
        <time>2014-04-20T08:02:00Z</time>
      </trkpt>
      <trkpt lat="47.58897" lon="-0.66672">
        <ele>33.3</ele>
        <time>2014-04-20T08:02:36Z</time>
      </trkpt>
      <trkpt lat="47.58606" lon="-0.66126">
        <ele>33.8</ele>
        <time>2014-04-20T08:04:05Z</time>
      </trkpt>
      <trkpt lat="47.58569" lon="-0.65956">
        <ele>34.5</ele>
        <time>2014-04-20T08:05:52Z</time>
      </trkpt>
      <trkpt lat="47.58556" lon="-0.65831">
        <ele>34.9</ele>
        <time>2014-04-20T08:06:07Z</time>
      </trkpt>
      <trkpt lat="47.58357" lon="-0.65453">
        <ele>33</ele>
        <time>2014-04-20T08:06:56Z</time>
      </trkpt>
      <trkpt lat="47.58286" lon="-0.65332">
        <ele>33</ele>
        <time>2014-04-20T08:07:11Z</time>
      </trkpt>
      <trkpt lat="47.58217" lon="-0.65223">
        <ele>31.8</ele>
        <time>2014-04-20T08:07:25Z</time>
      </trkpt>
      <trkpt lat="47.58182" lon="-0.65152">
        <ele>30.6</ele>
        <time>2014-04-20T08:07:33Z</time>
      </trkpt>
      <trkpt lat="47.58151" lon="-0.65016">
        <ele>28.4</ele>
        <time>2014-04-20T08:07:45Z</time>
      </trkpt>
      <trkpt lat="47.57942" lon="-0.64456">
        <ele>31.4</ele>
        <time>2014-04-20T08:08:54Z</time>
      </trkpt>
      <trkpt lat="47.57891" lon="-0.64351">
        <ele>30.1</ele>
        <time>2014-04-20T08:09:08Z</time>
      </trkpt>
      <trkpt lat="47.57876" lon="-0.64284">
        <ele>30.1</ele>
        <time>2014-04-20T08:09:15Z</time>
      </trkpt>
      <trkpt lat="47.57876" lon="-0.64156">
        <ele>30.3</ele>
        <time>2014-04-20T08:09:28Z</time>
      </trkpt>
      <trkpt lat="47.57859" lon="-0.64092">
        <ele>30.6</ele>
        <time>2014-04-20T08:09:35Z</time>
      </trkpt>
      <trkpt lat="47.57804" lon="-0.63933">
        <ele>26</ele>
        <time>2014-04-20T08:09:51Z</time>
      </trkpt>
      <trkpt lat="47.57751" lon="-0.63806">
        <ele>24</ele>
        <time>2014-04-20T08:10:03Z</time>
      </trkpt>
      <trkpt lat="47.57654" lon="-0.63495">
        <ele>25</ele>
        <time>2014-04-20T08:10:37Z</time>
      </trkpt>
      <trkpt lat="47.57602" lon="-0.63241">
        <ele>25.9</ele>
        <time>2014-04-20T08:11:08Z</time>
      </trkpt>
      <trkpt lat="47.57449" lon="-0.62843">
        <ele>25.2</ele>
        <time>2014-04-20T08:11:55Z</time>
      </trkpt>
      <trkpt lat="47.57381" lon="-0.6259">
        <ele>27</ele>
        <time>2014-04-20T08:12:27Z</time>
      </trkpt>
      <trkpt lat="47.57328" lon="-0.62525">
        <ele>26.4</ele>
        <time>2014-04-20T08:12:41Z</time>
      </trkpt>
      <trkpt lat="47.5731" lon="-0.62491">
        <ele>25.5</ele>
        <time>2014-04-20T08:12:46Z</time>
      </trkpt>
      <trkpt lat="47.57276" lon="-0.62145">
        <ele>23</ele>
        <time>2014-04-20T08:13:22Z</time>
      </trkpt>
      <trkpt lat="47.57255" lon="-0.62086">
        <ele>23.2</ele>
        <time>2014-04-20T08:13:29Z</time>
      </trkpt>
      <trkpt lat="47.572" lon="-0.62005">
        <ele>21.2</ele>
        <time>2014-04-20T08:13:40Z</time>
      </trkpt>
      <trkpt lat="47.57081" lon="-0.61916">
        <ele>19.9</ele>
        <time>2014-04-20T08:14:02Z</time>
      </trkpt>
      <trkpt lat="47.57074" lon="-0.61913">
        <ele>19.8</ele>
        <time>2014-04-20T08:14:05Z</time>
      </trkpt>
      <trkpt lat="47.57021" lon="-0.61866">
        <ele>21.2</ele>
        <time>2014-04-20T08:14:35Z</time>
      </trkpt>
      <trkpt lat="47.56988" lon="-0.61656">
        <ele>27.2</ele>
        <time>2014-04-20T08:15:26Z</time>
      </trkpt>
      <trkpt lat="47.56975" lon="-0.61352">
        <ele>42</ele>
        <time>2014-04-20T08:16:52Z</time>
      </trkpt>
      <trkpt lat="47.56966" lon="-0.61192">
        <ele>43.8</ele>
        <time>2014-04-20T08:17:23Z</time>
      </trkpt>
      <trkpt lat="47.56955" lon="-0.61161">
        <ele>43.4</ele>
        <time>2014-04-20T08:17:29Z</time>
      </trkpt>
      <trkpt lat="47.56737" lon="-0.61034">
        <ele>38.2</ele>
        <time>2014-04-20T08:18:11Z</time>
      </trkpt>
      <trkpt lat="47.56679" lon="-0.60975">
        <ele>34.3</ele>
        <time>2014-04-20T08:18:20Z</time>
      </trkpt>
      <trkpt lat="47.56615" lon="-0.6089">
        <ele>23.4</ele>
        <time>2014-04-20T08:18:30Z</time>
      </trkpt>
      <trkpt lat="47.56596" lon="-0.60884">
        <ele>24.2</ele>
        <time>2014-04-20T08:18:32Z</time>
      </trkpt>
      <trkpt lat="47.5659" lon="-0.60904">
        <ele>23.7</ele>
        <time>2014-04-20T08:18:35Z</time>
      </trkpt>
      <trkpt lat="47.56563" lon="-0.60984">
        <ele>20.2</ele>
        <time>2014-04-20T08:36:43Z</time>
      </trkpt>
      <trkpt lat="47.56425" lon="-0.60769">
        <ele>34.8</ele>
        <time>2014-04-20T08:38:00Z</time>
      </trkpt>
      <trkpt lat="47.56407" lon="-0.60741">
        <ele>35</ele>
        <time>2014-04-20T08:38:08Z</time>
      </trkpt>
      <trkpt lat="47.56276" lon="-0.60534">
        <ele>34.9</ele>
        <time>2014-04-20T08:38:49Z</time>
      </trkpt>
      <trkpt lat="47.55929" lon="-0.59979">
        <ele>35</ele>
        <time>2014-04-20T08:40:28Z</time>
      </trkpt>
      <trkpt lat="47.54113" lon="-0.60954">
        <ele>21</ele>
      </trkpt>
      <trkpt lat="47.54041" lon="-0.61012">
        <ele>20.3</ele>
      </trkpt>
      <trkpt lat="47.54014" lon="-0.61125">
        <ele>19</ele>
      </trkpt>
      <trkpt lat="47.53981" lon="-0.61542">
        <ele>19.9</ele>
      </trkpt>
      <trkpt lat="47.53992" lon="-0.61573">
        <ele>20.7</ele>
      </trkpt>
      <trkpt lat="47.54025" lon="-0.61589">
        <ele>21.4</ele>
      </trkpt>
      <trkpt lat="47.54076" lon="-0.61565">
        <ele>21.3</ele>
      </trkpt>
      <trkpt lat="47.54068" lon="-0.61503">
        <ele>20</ele>
      </trkpt>
      <trkpt lat="47.54025" lon="-0.61425">
        <ele>17.2</ele>
      </trkpt>
      <trkpt lat="47.53771" lon="-0.61581">
        <ele>17.7</ele>
      </trkpt>
      <trkpt lat="47.53628" lon="-0.61608">
        <ele>17.8</ele>
      </trkpt>
      <trkpt lat="47.53539" lon="-0.61601">
        <ele>18.8</ele>
      </trkpt>
      <trkpt lat="47.53442" lon="-0.61562">
        <ele>27.6</ele>
      </trkpt>
      <trkpt lat="47.53302" lon="-0.61406">
        <ele>21.6</ele>
      </trkpt>
      <trkpt lat="47.53181" lon="-0.6125">
        <ele>26.7</ele>
      </trkpt>
      <trkpt lat="47.53081" lon="-0.61063">
        <ele>30.1</ele>
      </trkpt>
      <trkpt lat="47.53057" lon="-0.60872">
        <ele>28.3</ele>
      </trkpt>
      <trkpt lat="47.53092" lon="-0.60587">
        <ele>27.9</ele>
      </trkpt>
      <trkpt lat="47.53157" lon="-0.60373">
        <ele>29.2</ele>
      </trkpt>
      <trkpt lat="47.53254" lon="-0.60139">
        <ele>21.2</ele>
      </trkpt>
      <trkpt lat="47.53356" lon="-0.59687">
        <ele>17.4</ele>
      </trkpt>
      <trkpt lat="47.53389" lon="-0.59274">
        <ele>17</ele>
      </trkpt>
      <trkpt lat="47.53499" lon="-0.59102">
        <ele>17.3</ele>
      </trkpt>
      <trkpt lat="47.53566" lon="-0.5881">
        <ele>16.6</ele>
      </trkpt>
      <trkpt lat="47.53521" lon="-0.58455">
        <ele>17.3</ele>
      </trkpt>
      <trkpt lat="47.53521" lon="-0.58058">
        <ele>17.3</ele>
      </trkpt>
      <trkpt lat="47.53494" lon="-0.57848">
        <ele>16.5</ele>
      </trkpt>
      <trkpt lat="47.53383" lon="-0.5747">
        <ele>17.1</ele>
      </trkpt>
      <trkpt lat="47.5331" lon="-0.57325">
        <ele>17.4</ele>
      </trkpt>
      <trkpt lat="47.53251" lon="-0.57259">
        <ele>17.3</ele>
      </trkpt>
      <trkpt lat="47.53052" lon="-0.57115">
        <ele>17.9</ele>
      </trkpt>
      <trkpt lat="47.52987" lon="-0.57088">
        <ele>16.2</ele>
      </trkpt>
      <trkpt lat="47.52938" lon="-0.57107">
        <ele>16.2</ele>
      </trkpt>
      <trkpt lat="47.52895" lon="-0.57072">
        <ele>16.5</ele>
      </trkpt>
      <trkpt lat="47.52806" lon="-0.57053">
        <ele>16.9</ele>
      </trkpt>
      <trkpt lat="47.52634" lon="-0.57021">
        <ele>16.4</ele>
      </trkpt>
      <trkpt lat="47.52441" lon="-0.56867">
        <ele>19.6</ele>
        <time>2014-04-20T08:56:58Z</time>
      </trkpt>
      <trkpt lat="47.5244" lon="-0.56865">
        <ele>19.8</ele>
        <time>2014-04-20T08:57:02Z</time>
      </trkpt>
      <trkpt lat="47.52231" lon="-0.56616">
        <ele>16.3</ele>
        <time>2014-04-20T09:01:08Z</time>
      </trkpt>
      <trkpt lat="47.52211" lon="-0.56596">
        <ele>15.9</ele>
        <time>2014-04-20T09:01:33Z</time>
      </trkpt>
      <trkpt lat="47.51936" lon="-0.56431">
        <ele>15.7</ele>
        <time>2014-04-20T09:04:34Z</time>
      </trkpt>
      <trkpt lat="47.51853" lon="-0.5642">
        <ele>16.1</ele>
        <time>2014-04-20T09:04:56Z</time>
      </trkpt>
      <trkpt lat="47.51747" lon="-0.56437">
        <ele>16.2</ele>
        <time>2014-04-20T09:05:21Z</time>
      </trkpt>
      <trkpt lat="47.51622" lon="-0.56422">
        <ele>16.7</ele>
        <time>2014-04-20T09:05:48Z</time>
      </trkpt>
      <trkpt lat="47.51591" lon="-0.56398">
        <ele>16</ele>
        <time>2014-04-20T09:05:56Z</time>
      </trkpt>
      <trkpt lat="47.51524" lon="-0.56356">
        <ele>16.4</ele>
        <time>2014-04-20T09:06:12Z</time>
      </trkpt>
      <trkpt lat="47.51463" lon="-0.56343">
        <ele>15.9</ele>
        <time>2014-04-20T09:06:26Z</time>
      </trkpt>
      <trkpt lat="47.51098" lon="-0.56281">
        <ele>16.6</ele>
        <time>2014-04-20T09:07:48Z</time>
      </trkpt>
      <trkpt lat="47.50994" lon="-0.56308">
        <ele>16.4</ele>
        <time>2014-04-20T09:08:11Z</time>
      </trkpt>
      <trkpt lat="47.50932" lon="-0.56369">
        <ele>16</ele>
        <time>2014-04-20T09:08:27Z</time>
      </trkpt>
      <trkpt lat="47.50817" lon="-0.56448">
        <ele>15.5</ele>
        <time>2014-04-20T09:08:55Z</time>
      </trkpt>
      <trkpt lat="47.5074" lon="-0.5647">
        <ele>16.4</ele>
        <time>2014-04-20T09:09:16Z</time>
      </trkpt>
      <trkpt lat="47.50717" lon="-0.5648">
        <ele>16.3</ele>
        <time>2014-04-20T09:09:28Z</time>
      </trkpt>
      <trkpt lat="47.50582" lon="-0.56416">
        <ele>16.9</ele>
        <time>2014-04-20T09:10:04Z</time>
      </trkpt>
      <trkpt lat="47.5055" lon="-0.5638">
        <ele>16.2</ele>
        <time>2014-04-20T09:10:56Z</time>
      </trkpt>
      <trkpt lat="47.50518" lon="-0.5631">
        <ele>15.8</ele>
        <time>2014-04-20T09:11:12Z</time>
      </trkpt>
      <trkpt lat="47.50505" lon="-0.56283">
        <ele>16.5</ele>
        <time>2014-04-20T09:11:19Z</time>
      </trkpt>
      <trkpt lat="47.50415" lon="-0.56179">
        <ele>15.9</ele>
        <time>2014-04-20T09:13:27Z</time>
      </trkpt>
      <trkpt lat="47.50371" lon="-0.56119">
        <ele>16.1</ele>
        <time>2014-04-20T09:13:42Z</time>
      </trkpt>
      <trkpt lat="47.50356" lon="-0.56072">
        <ele>15.4</ele>
        <time>2014-04-20T09:13:50Z</time>
      </trkpt>
      <trkpt lat="47.50337" lon="-0.56042">
        <ele>15.8</ele>
        <time>2014-04-20T09:13:59Z</time>
      </trkpt>
      <trkpt lat="47.50294" lon="-0.56045">
        <ele>16.4</ele>
        <time>2014-04-20T09:16:02Z</time>
      </trkpt>
      <trkpt lat="47.50294" lon="-0.5603">
        <ele>16.1</ele>
        <time>2014-04-20T09:16:06Z</time>
      </trkpt>
      <trkpt lat="47.50295" lon="-0.56014">
        <ele>15.9</ele>
        <time>2014-04-20T09:16:11Z</time>
      </trkpt>
      <trkpt lat="47.5024" lon="-0.55954">
        <ele>15.5</ele>
        <time>2014-04-20T09:16:29Z</time>
      </trkpt>
      <trkpt lat="47.50187" lon="-0.55888">
        <ele>14.8</ele>
        <time>2014-04-20T09:16:44Z</time>
      </trkpt>
      <trkpt lat="47.50171" lon="-0.5585">
        <ele>16.2</ele>
        <time>2014-04-20T09:16:51Z</time>
      </trkpt>
      <trkpt lat="47.50145" lon="-0.55708">
        <ele>16.3</ele>
        <time>2014-04-20T09:17:32Z</time>
      </trkpt>
      <trkpt lat="47.5016" lon="-0.55646">
        <ele>15.8</ele>
        <time>2014-04-20T09:17:41Z</time>
      </trkpt>
      <trkpt lat="47.50185" lon="-0.55604">
        <ele>15.5</ele>
        <time>2014-04-20T09:17:48Z</time>
      </trkpt>
      <trkpt lat="47.5019" lon="-0.55554">
        <ele>17</ele>
        <time>2014-04-20T09:17:55Z</time>
      </trkpt>
      <trkpt lat="47.50189" lon="-0.55491">
        <ele>16</ele>
        <time>2014-04-20T09:18:04Z</time>
      </trkpt>
      <trkpt lat="47.50135" lon="-0.5546">
        <ele>15.8</ele>
        <time>2014-04-20T09:18:16Z</time>
      </trkpt>
      <trkpt lat="47.50049" lon="-0.55379">
        <ele>15.7</ele>
        <time>2014-04-20T09:18:36Z</time>
      </trkpt>
      <trkpt lat="47.50037" lon="-0.55324">
        <ele>16</ele>
        <time>2014-04-20T09:18:43Z</time>
      </trkpt>
      <trkpt lat="47.49986" lon="-0.55191">
        <ele>15.5</ele>
        <time>2014-04-20T09:19:02Z</time>
      </trkpt>
      <trkpt lat="47.49978" lon="-0.55126">
        <ele>16.4</ele>
        <time>2014-04-20T09:19:10Z</time>
      </trkpt>
      <trkpt lat="47.49965" lon="-0.55075">
        <ele>14.8</ele>
        <time>2014-04-20T09:19:16Z</time>
      </trkpt>
      <trkpt lat="47.49848" lon="-0.5488">
        <ele>15.4</ele>
        <time>2014-04-20T09:19:46Z</time>
      </trkpt>
      <trkpt lat="47.4979" lon="-0.5475">
        <ele>15.1</ele>
        <time>2014-04-20T09:20:04Z</time>
      </trkpt>
      <trkpt lat="47.49677" lon="-0.54658">
        <ele>15.8</ele>
        <time>2014-04-20T09:20:26Z</time>
      </trkpt>
      <trkpt lat="47.49618" lon="-0.54583">
        <ele>16.2</ele>
        <time>2014-04-20T09:20:40Z</time>
      </trkpt>
      <trkpt lat="47.49578" lon="-0.54527">
        <ele>16</ele>
        <time>2014-04-20T09:20:52Z</time>
      </trkpt>
      <trkpt lat="47.49529" lon="-0.54485">
        <ele>15.4</ele>
        <time>2014-04-20T09:21:02Z</time>
      </trkpt>
      <trkpt lat="47.49496" lon="-0.5445">
        <ele>15.3</ele>
        <time>2014-04-20T09:21:11Z</time>
      </trkpt>
      <trkpt lat="47.49417" lon="-0.54383">
        <ele>15.6</ele>
        <time>2014-04-20T09:21:32Z</time>
      </trkpt>
      <trkpt lat="47.49346" lon="-0.54345">
        <ele>15.2</ele>
        <time>2014-04-20T09:21:46Z</time>
      </trkpt>
      <trkpt lat="47.49264" lon="-0.54371">
        <ele>16.2</ele>
        <time>2014-04-20T09:23:07Z</time>
      </trkpt>
      <trkpt lat="47.49211" lon="-0.54451">
        <ele>15.4</ele>
        <time>2014-04-20T09:23:24Z</time>
      </trkpt>
      <trkpt lat="47.49031" lon="-0.54713">
        <ele>17</ele>
        <time>2014-04-20T09:24:21Z</time>
      </trkpt>
      <trkpt lat="47.48797" lon="-0.54882">
        <ele>17.8</ele>
        <time>2014-04-20T09:25:31Z</time>
      </trkpt>
      <trkpt lat="47.48647" lon="-0.55013">
        <ele>17.2</ele>
        <time>2014-04-20T09:26:40Z</time>
      </trkpt>
      <trkpt lat="47.4837" lon="-0.55224">
        <ele>19</ele>
        <time>2014-04-20T09:29:37Z</time>
      </trkpt>
      <trkpt lat="47.48267" lon="-0.55288">
        <ele>19</ele>
        <time>2014-04-20T09:29:58Z</time>
      </trkpt>
      <trkpt lat="47.48169" lon="-0.55319">
        <ele>16.7</ele>
        <time>2014-04-20T09:30:20Z</time>
      </trkpt>
      <trkpt lat="47.47917" lon="-0.5547">
        <ele>15</ele>
      </trkpt>
      <trkpt lat="47.4791" lon="-0.55509">
        <ele>18.8</ele>
      </trkpt>
      <trkpt lat="47.4781" lon="-0.55568">
        <ele>21.2</ele>
        <time>2014-04-20T09:33:56Z</time>
      </trkpt>
      <trkpt lat="47.47399" lon="-0.55855">
        <ele>18.6</ele>
        <time>2014-04-20T09:35:34Z</time>
      </trkpt>
      <trkpt lat="47.47274" lon="-0.56041">
        <ele>18.8</ele>
        <time>2014-04-20T09:37:09Z</time>
      </trkpt>
      <trkpt lat="47.47237" lon="-0.56104">
        <ele>18</ele>
        <time>2014-04-20T09:37:20Z</time>
      </trkpt>
      <trkpt lat="47.47243" lon="-0.56123">
        <ele>19.3</ele>
        <time>2014-04-20T09:37:25Z</time>
      </trkpt>
      <trkpt lat="47.47254" lon="-0.56141">
        <ele>19.9</ele>
      </trkpt>
      <trkpt lat="47.47246" lon="-0.56173">
        <ele>18.1</ele>
      </trkpt>
      <trkpt lat="47.47269" lon="-0.56217">
        <ele>17.9</ele>
      </trkpt>
      <trkpt lat="47.47145" lon="-0.56385">
        <ele>19.4</ele>
      </trkpt>
      <trkpt lat="47.47095" lon="-0.56401">
        <ele>16.6</ele>
      </trkpt>
      <trkpt lat="47.4706" lon="-0.56455">
        <ele>15.5</ele>
      </trkpt>
      <trkpt lat="47.47061" lon="-0.56525">
        <ele>17.8</ele>
      </trkpt>
      <trkpt lat="47.4699" lon="-0.5664">
        <ele>17.2</ele>
      </trkpt>
      <trkpt lat="47.47007" lon="-0.56658">
        <ele>20.5</ele>
      </trkpt>
      <trkpt lat="47.47112" lon="-0.56495">
        <ele>20.7</ele>
      </trkpt>
    </trkseg>
  </trk>
</gpx>